createdAt,value
2023-04-02T00:00:12.686Z,97215.77
2023-04-02T00:02:48.518Z,97220.14
2023-04-02T00:05:16.702Z,97216.57
2023-04-02T00:07:49.028Z,97216.88
2023-04-02T00:10:33.682Z,97218.95
2023-04-02T00:13:10.680Z,97216.36
2023-04-02T00:15:39.508Z,97218.41
2023-04-02T00:18:07.632Z,97220.98
2023-04-02T00:20:41.015Z,97221.72
2023-04-02T00:23:10.547Z,97224.44
2023-04-02T00:25:49.649Z,97224.84
2023-04-02T00:28:20.970Z,97227.13
2023-04-02T00:30:56.941Z,97229.48
2023-04-02T00:33:28.450Z,97230.38
2023-04-02T00:35:56.609Z,97232.13
2023-04-02T00:38:35.450Z,97230.75
2023-04-02T00:41:05.222Z,97233.52
2023-04-02T00:43:35.960Z,97231.80
2023-04-02T00:46:10.916Z,97233.81
2023-04-02T00:48:56.728Z,97232.42
2023-04-02T00:51:35.779Z,97237.79
2023-04-02T00:54:06.929Z,97237.56
2023-04-02T00:56:44.319Z,97241.95
2023-04-02T00:59:31.353Z,97242.44
2023-04-02T01:02:18.802Z,97246.30
2023-04-02T01:05:11.494Z,97248.01
2023-04-02T01:08:06.510Z,97252.37
2023-04-02T01:10:50.299Z,97254.20
2023-04-02T01:13:23.256Z,97257.50
2023-04-02T01:16:14.799Z,97258.84
2023-04-02T01:18:56.975Z,97259.29
2023-04-02T01:21:42.807Z,97260.84
2023-04-02T01:24:14.787Z,97264.77
2023-04-02T01:26:57.694Z,97264.92
2023-04-02T01:29:48.983Z,97264.77
2023-04-02T01:32:20.755Z,97270.34
2023-04-02T01:34:49.642Z,97267.69
2023-04-02T01:37:49.852Z,97270.25
2023-04-02T01:40:21.589Z,97269.58
2023-04-02T01:43:10.068Z,97269.56
2023-04-02T01:45:37.204Z,97271.27
2023-04-02T01:48:20.011Z,97270.04
2023-04-02T01:50:50.300Z,97272.46
2023-04-02T01:53:20.719Z,97274.44
2023-04-02T01:55:52.761Z,97277.73
2023-04-02T01:58:26.542Z,97273.80
2023-04-02T02:00:57.167Z,97277.66
2023-04-02T02:03:24.279Z,97278.77
2023-04-02T02:05:51.542Z,97281.86
2023-04-02T02:08:31.626Z,97282.92
2023-04-02T02:10:59.448Z,97283.50
2023-04-02T02:13:26.186Z,97289.14
2023-04-02T02:15:56.596Z,97289.23
2023-04-02T02:18:23.947Z,97291.35
2023-04-02T02:20:53.106Z,97289.73
2023-04-02T02:23:21.764Z,97290.61
2023-04-02T02:25:48.702Z,97291.39
2023-04-02T02:28:24.352Z,97291.27
2023-04-02T02:30:56.269Z,97290.20
2023-04-02T02:33:26.983Z,97296.88
2023-04-02T02:36:01.357Z,97297.31
2023-04-02T02:38:34.502Z,97296.80
2023-04-02T02:41:08.169Z,97297.50
2023-04-02T02:43:39.322Z,97298.11
2023-04-02T02:46:08.872Z,97302.85
2023-04-02T02:48:39.572Z,97304.95
2023-04-02T02:51:14.480Z,97308.74
2023-04-02T02:53:53.529Z,97312.05
2023-04-02T02:56:23.788Z,97315.30
2023-04-02T02:58:53.632Z,97316.39
2023-04-02T03:01:21.328Z,97319.20
2023-04-02T03:03:49.688Z,97325.23
2023-04-02T03:06:20.991Z,97323.41
2023-04-02T03:08:57.890Z,97324.27
2023-04-02T03:11:35.282Z,97327.86
2023-04-02T03:14:31.622Z,97331.73
2023-04-02T03:17:11.202Z,97332.69
2023-04-02T03:19:48.343Z,97330.31
2023-04-02T03:22:23.748Z,97334.21
2023-04-02T03:25:00.034Z,97329.77
2023-04-02T03:27:37.207Z,97332.29
2023-04-02T03:30:27.173Z,97333.85
2023-04-02T03:33:00.656Z,97337.88
2023-04-02T03:35:43.660Z,97340.69
2023-04-02T03:38:31.052Z,97344.65
2023-04-02T03:41:06.735Z,97341.64
2023-04-02T03:43:50.181Z,97342.59
2023-04-02T03:46:37.013Z,97344.55
2023-04-02T03:49:12.765Z,97349.73
2023-04-02T03:51:51.157Z,97354.79
2023-04-02T03:54:18.378Z,97355.61
2023-04-02T03:56:47.857Z,97357.27
2023-04-02T03:59:35.062Z,97360.38
2023-04-02T04:02:24.849Z,97365.42
2023-04-02T04:04:54.662Z,97365.47
2023-04-02T04:07:35.291Z,97363.58
2023-04-02T04:10:04.728Z,97368.73
2023-04-02T04:12:43.783Z,97369.36
2023-04-02T04:15:19.250Z,97375.11
2023-04-02T04:17:55.382Z,97372.21
2023-04-02T04:20:26.652Z,97379.52
2023-04-02T04:22:58.150Z,97378.44
2023-04-02T04:25:30.811Z,97382.02
2023-04-02T04:28:06.163Z,97387.39
2023-04-02T04:30:51.201Z,97390.41
2023-04-02T04:33:29.255Z,97394.06
2023-04-02T04:35:59.544Z,97396.24
2023-04-02T04:38:33.128Z,97400.35
2023-04-02T04:41:21.687Z,97404.63
2023-04-02T04:43:48.305Z,97407.91
2023-04-02T04:46:20.931Z,97405.63
2023-04-02T04:48:52.795Z,97406.09
2023-04-02T04:51:25.857Z,97413.84
2023-04-02T04:53:55.513Z,97416.95
2023-04-02T04:56:27.033Z,97418.59
2023-04-02T04:58:59.708Z,97422.91
2023-04-02T05:01:41.137Z,97426.16
2023-04-02T05:04:24.942Z,97429.10
2023-04-02T05:07:03.325Z,97429.39
2023-04-02T05:09:36.735Z,97431.54
2023-04-02T05:12:22.158Z,97431.14
2023-04-02T05:14:54.994Z,97433.52
2023-04-02T05:17:37.785Z,97433.96
2023-04-02T05:20:28.443Z,97441.04
2023-04-02T05:22:58.812Z,97440.86
2023-04-02T05:25:29.026Z,97444.16
2023-04-02T05:28:18.390Z,97446.70
2023-04-02T05:30:58.253Z,97449.41
2023-04-02T05:33:27.606Z,97450.42
2023-04-02T05:36:06.227Z,97451.55
2023-04-02T05:38:36.848Z,97454.11
2023-04-02T05:41:29.187Z,97461.59
2023-04-02T05:44:22.047Z,97458.98
2023-04-02T05:46:51.910Z,97458.96
2023-04-02T05:49:28.539Z,97459.88
2023-04-02T05:52:01.094Z,97463.60
2023-04-02T05:54:52.570Z,97462.38
2023-04-02T05:57:39.546Z,97464.69
2023-04-02T06:00:18.504Z,97469.98
2023-04-02T06:02:54.870Z,97468.44
2023-04-02T06:05:26.968Z,97468.08
2023-04-02T06:08:03.678Z,97467.98
2023-04-02T06:10:35.556Z,97469.49
2023-04-02T06:13:09.142Z,97471.45
2023-04-02T06:15:38.354Z,97474.83
2023-04-02T06:18:05.234Z,97474.52
2023-04-02T06:20:32.983Z,97477.52
2023-04-02T06:23:19.586Z,97483.31
2023-04-02T06:25:53.284Z,97486.19
2023-04-02T06:28:28.553Z,97491.67
2023-04-02T06:31:01.296Z,97495.72
2023-04-02T06:33:28.196Z,97498.98
2023-04-02T06:35:55.680Z,97503.08
2023-04-02T06:38:29.799Z,97503.16
2023-04-02T06:41:10.749Z,97506.49
2023-04-02T06:43:50.113Z,97512.11
2023-04-02T06:46:43.095Z,97511.02
2023-04-02T06:49:19.528Z,97512.10
2023-04-02T06:51:48.411Z,97515.52
2023-04-02T06:54:17.226Z,97519.75
2023-04-02T06:56:50.055Z,97523.77
2023-04-02T06:59:17.889Z,97524.52
2023-04-02T07:01:54.076Z,97523.93
2023-04-02T07:04:22.298Z,97521.46
2023-04-02T07:06:49.331Z,97525.70
2023-04-02T07:09:17.213Z,97525.31
2023-04-02T07:11:44.052Z,97526.48
2023-04-02T07:14:16.534Z,97529.31
2023-04-02T07:16:44.322Z,97530.01
2023-04-02T07:19:20.719Z,97529.95
2023-04-02T07:21:48.245Z,97530.80
2023-04-02T07:24:15.365Z,97535.80
2023-04-02T07:26:42.356Z,97540.77
2023-04-02T07:29:14.981Z,97543.12
2023-04-02T07:31:41.982Z,97544.20
2023-04-02T07:34:10.497Z,97550.55
2023-04-02T07:36:37.777Z,97552.48
2023-04-02T07:39:04.740Z,97553.35
2023-04-02T07:41:31.519Z,97557.86
2023-04-02T07:43:58.548Z,97564.68
2023-04-02T07:46:26.095Z,97565.64
2023-04-02T07:48:53.255Z,97562.52
2023-04-02T07:51:22.062Z,97570.73
2023-04-02T07:53:51.009Z,97570.29
2023-04-02T07:56:19.994Z,97578.50
2023-04-02T07:58:47.364Z,97576.69
2023-04-02T08:01:24.351Z,97578.35
2023-04-02T08:03:54.281Z,97581.61
2023-04-02T08:06:22.059Z,97584.11
2023-04-02T08:08:49.118Z,97583.95
2023-04-02T08:11:16.318Z,97585.34
2023-04-02T08:13:43.311Z,97592.50
2023-04-02T08:16:10.937Z,97591.44
2023-04-02T08:18:38.459Z,97595.27
2023-04-02T08:21:10.351Z,97595.27
2023-04-02T08:23:37.844Z,97597.09
2023-04-02T08:26:05.934Z,97603.48
2023-04-02T08:28:32.613Z,97607.09
2023-04-02T08:30:59.623Z,97608.91
2023-04-02T08:33:27.140Z,97615.81
2023-04-02T08:35:54.082Z,97621.63
2023-04-02T08:38:22.585Z,97628.27
2023-04-02T08:40:52.250Z,97629.75
2023-04-02T08:43:40.995Z,97629.97
2023-04-02T08:46:17.249Z,97636.85
2023-04-02T08:48:49.264Z,97640.31
2023-04-02T08:51:28.365Z,97644.36
2023-04-02T08:54:00.510Z,97646.28
2023-04-02T08:56:37.260Z,97650.02
2023-04-02T08:59:24.996Z,97653.96
2023-04-02T09:02:16.037Z,97661.73
2023-04-02T09:04:43.467Z,97679.88
2023-04-02T09:07:15.664Z,97687.88
2023-04-02T09:09:42.768Z,97699.68
2023-04-02T09:12:36.591Z,97704.80
2023-04-02T09:15:29.746Z,97710.57
2023-04-02T09:18:01.224Z,97717.85
2023-04-02T09:20:29.432Z,97718.80
2023-04-02T09:22:57.258Z,97724.86
2023-04-02T09:25:28.016Z,97732.12
2023-04-02T09:27:57.676Z,97738.40
2023-04-02T09:30:29.729Z,97737.83
2023-04-02T09:33:02.694Z,97743.61
2023-04-02T09:35:32.647Z,97750.02
2023-04-02T09:38:13.377Z,97760.73
2023-04-02T09:40:51.392Z,97765.23
2023-04-02T09:43:21.660Z,97766.59
2023-04-02T09:46:16.680Z,97770.45
2023-04-02T09:49:01.170Z,97779.15
2023-04-02T09:51:34.833Z,97785.91
2023-04-02T09:54:04.724Z,97787.48
2023-04-02T09:56:39.954Z,97789.18
2023-04-02T09:59:12.482Z,97796.35
2023-04-02T10:02:06.282Z,97800.57
2023-04-02T10:04:48.145Z,97811.29
2023-04-02T10:07:40.622Z,97811.52
2023-04-02T10:10:19.429Z,97817.75
2023-04-02T10:12:51.613Z,97817.23
2023-04-02T10:15:25.835Z,97823.10
2023-04-02T10:18:04.022Z,97827.86
2023-04-02T10:20:41.791Z,97836.48
2023-04-02T10:23:17.450Z,97838.06
2023-04-02T10:25:55.153Z,97843.73
2023-04-02T10:28:44.841Z,97848.80
2023-04-02T10:31:29.998Z,97855.22
2023-04-02T10:34:04.130Z,97858.45
2023-04-02T10:36:48.299Z,97864.81
2023-04-02T10:39:15.268Z,97873.59
2023-04-02T10:41:53.623Z,97873.74
2023-04-02T10:44:49.766Z,97882.70
2023-04-02T10:47:28.878Z,97885.56
2023-04-02T10:50:36.260Z,97891.48
2023-04-02T10:53:09.734Z,97892.90
2023-04-02T10:55:43.379Z,97897.59
2023-04-02T10:58:26.908Z,97898.88
2023-04-02T11:01:24.339Z,97900.21
2023-04-02T11:04:19.051Z,97901.42
2023-04-02T11:07:03.476Z,97907.59
2023-04-02T11:09:43.649Z,97913.35
2023-04-02T11:12:42.098Z,97923.38
2023-04-02T11:15:19.205Z,97931.98
2023-04-02T11:17:46.726Z,97937.66
2023-04-02T11:20:43.307Z,97942.36
2023-04-02T11:23:18.424Z,97948.34
2023-04-02T11:25:46.741Z,97949.12
2023-04-02T11:28:25.927Z,97952.59
2023-04-02T11:30:53.630Z,97954.09
2023-04-02T11:33:39.249Z,97957.49
2023-04-02T11:36:44.901Z,97958.58
2023-04-02T11:39:17.532Z,97958.27
2023-04-02T11:42:03.940Z,97959.02
2023-04-02T11:44:31.032Z,97964.21
2023-04-02T11:47:18.896Z,97971.30
2023-04-02T11:49:55.712Z,97975.66
2023-04-02T11:52:26.305Z,97982.48
2023-04-02T11:55:05.160Z,97985.15
2023-04-02T11:57:50.891Z,97985.17
2023-04-02T12:00:45.365Z,97984.45
2023-04-02T12:03:30.212Z,97989.51
2023-04-02T12:06:13.548Z,97994.36
2023-04-02T12:08:57.213Z,97993.63
2023-04-02T12:11:34.579Z,97998.46
2023-04-02T12:14:03.158Z,98003.16
2023-04-02T12:16:34.816Z,98002.30
2023-04-02T12:19:01.633Z,98004.56
2023-04-02T12:21:29.872Z,98011.22
2023-04-02T12:23:59.592Z,98014.79
2023-04-02T12:26:32.245Z,98015.63
2023-04-02T12:29:27.103Z,98016.13
2023-04-02T12:31:56.314Z,98019.09
2023-04-02T12:34:25.895Z,98019.55
2023-04-02T12:37:04.733Z,98016.83
2023-04-02T12:39:33.767Z,98022.34
2023-04-02T12:42:00.814Z,98016.63
2023-04-02T12:44:30.541Z,98020.56
2023-04-02T12:46:59.394Z,98022.64
2023-04-02T12:49:39.626Z,98022.94
2023-04-02T12:52:13.158Z,98022.48
2023-04-02T12:54:53.769Z,98026.57
2023-04-02T12:57:40.175Z,98030.02
2023-04-02T13:00:25.217Z,98032.90
2023-04-02T13:03:13.355Z,98034.59
2023-04-02T13:05:44.775Z,98038.73
2023-04-02T13:08:23.058Z,98045.25
2023-04-02T13:10:56.915Z,98045.90
2023-04-02T13:13:46.224Z,98049.75
2023-04-02T13:16:12.951Z,98050.13
2023-04-02T13:18:40.653Z,98055.92
2023-04-02T13:23:51.875Z,98061.72
2023-04-02T13:26:18.607Z,98068.58
2023-04-02T13:29:01.402Z,98070.54
2023-04-02T13:31:30.416Z,98071.33
2023-04-02T13:33:57.346Z,98071.25
2023-04-02T13:36:24.207Z,98072.66
2023-04-02T13:38:51.327Z,98077.11
2023-04-02T13:41:28.371Z,98077.86
2023-04-02T13:43:57.659Z,98079.92
2023-04-02T13:46:27.431Z,98081.23
2023-04-02T13:48:55.086Z,98083.70
2023-04-02T13:51:34.438Z,98085.80
2023-04-02T13:54:01.425Z,98085.04
2023-04-02T13:56:29.096Z,98085.66
2023-04-02T13:58:55.980Z,98089.17
2023-04-02T14:01:24.765Z,98088.38
2023-04-02T14:03:53.300Z,98086.77
2023-04-02T14:06:37.849Z,98092.29
2023-04-02T14:09:18.664Z,98096.50
2023-04-02T14:11:56.455Z,98097.41
2023-04-02T14:14:37.281Z,98094.36
2023-04-02T14:17:21.037Z,98098.34
2023-04-02T14:20:00.841Z,98099.36
2023-04-02T14:22:36.694Z,98104.42
2023-04-02T14:25:37.954Z,98112.44
2023-04-02T14:28:13.876Z,98113.10
2023-04-02T14:31:08.489Z,98115.90
2023-04-02T14:34:03.366Z,98118.32
2023-04-02T14:36:50.010Z,98125.17
2023-04-02T14:39:32.980Z,98127.00
2023-04-02T14:42:16.966Z,98130.97
2023-04-02T14:44:53.462Z,98138.13
2023-04-02T14:47:30.035Z,98142.06
2023-04-02T14:50:11.849Z,98143.50
2023-04-02T14:52:42.543Z,98145.38
2023-04-02T14:55:21.849Z,98147.32
2023-04-02T14:57:54.047Z,98150.31
2023-04-02T15:00:45.025Z,98149.35
2023-04-02T15:03:36.662Z,98156.76
2023-04-02T15:06:09.798Z,98152.91
2023-04-02T15:08:52.254Z,98151.16
2023-04-02T15:11:31.591Z,98156.90
2023-04-02T15:14:13.156Z,98153.68
2023-04-02T15:16:40.265Z,98159.02
2023-04-02T15:19:13.468Z,98161.27
2023-04-02T15:22:03.958Z,98171.12
2023-04-02T15:24:43.461Z,98176.30
2023-04-02T15:27:38.427Z,98181.12
2023-04-02T15:30:15.220Z,98182.44
2023-04-02T15:32:43.801Z,98188.04
2023-04-02T15:35:18.725Z,98195.19
2023-04-02T15:38:12.120Z,98202.04
2023-04-02T15:40:59.816Z,98205.65
2023-04-02T15:43:39.190Z,98212.25
2023-04-02T15:46:32.601Z,98207.27
2023-04-02T15:49:03.303Z,98210.86
2023-04-02T15:51:57.980Z,98212.46
2023-04-02T15:54:41.436Z,98223.00
2023-04-02T15:57:25.195Z,98231.90
2023-04-02T16:00:30.681Z,98235.17
2023-04-02T16:03:06.358Z,98237.63
2023-04-02T16:06:05.931Z,98239.34
2023-04-02T16:08:35.654Z,98241.18
2023-04-02T16:11:02.457Z,98250.06
2023-04-02T16:13:36.721Z,98249.11
2023-04-02T16:16:05.885Z,98252.50
2023-04-02T16:18:56.969Z,98258.61
2023-04-02T16:21:32.481Z,98260.36
2023-04-02T16:23:59.396Z,98261.78
2023-04-02T16:26:34.901Z,98265.86
2023-04-02T16:29:25.680Z,98268.02
2023-04-02T16:32:11.493Z,98277.40
2023-04-02T16:35:15.232Z,98280.66
2023-04-02T16:37:53.279Z,98286.77
2023-04-02T16:40:34.110Z,98288.33
2023-04-02T16:43:10.629Z,98288.98
2023-04-02T16:46:13.402Z,98291.77
2023-04-02T16:48:57.593Z,98295.31
2023-04-02T16:51:52.245Z,98295.86
2023-04-02T16:55:02.335Z,98299.20
2023-04-02T16:57:53.239Z,98301.41
2023-04-02T17:00:32.520Z,98303.95
2023-04-02T17:03:27.282Z,98304.65
2023-04-02T17:06:08.369Z,98313.84
2023-04-02T17:09:09.493Z,98323.23
2023-04-02T17:11:52.966Z,98327.92
2023-04-02T17:15:26.697Z,98330.91
2023-04-02T17:17:58.623Z,98333.87
2023-04-02T17:20:26.697Z,98340.00
2023-04-02T17:22:54.516Z,98341.44
2023-04-02T17:25:34.304Z,98344.83
2023-04-02T17:28:03.173Z,98350.04
2023-04-02T17:30:47.335Z,98344.30
2023-04-02T17:33:16.400Z,98357.36
2023-04-02T17:35:46.096Z,98355.31
2023-04-02T17:38:20.254Z,98358.54
2023-04-02T17:41:08.659Z,98360.94
2023-04-02T17:43:58.816Z,98366.03
2023-04-02T17:46:45.920Z,98368.05
2023-04-02T17:49:26.930Z,98372.48
2023-04-02T17:52:07.668Z,98374.27
2023-04-02T17:54:52.077Z,98378.89
2023-04-02T17:58:01.783Z,98384.79
2023-04-02T18:00:51.420Z,98385.91
2023-04-02T18:03:36.304Z,98388.11
2023-04-02T18:06:16.365Z,98392.28
2023-04-02T18:08:57.193Z,98393.91
2023-04-02T18:11:37.873Z,98397.76
2023-04-02T18:14:37.480Z,98391.75
2023-04-02T18:17:30.322Z,98395.30
2023-04-02T18:20:16.779Z,98403.92
2023-04-02T18:22:57.873Z,98405.34
2023-04-02T18:25:43.257Z,98413.49
2023-04-02T18:28:23.966Z,98415.69
2023-04-02T18:31:01.436Z,98418.79
2023-04-02T18:33:29.282Z,98422.85
2023-04-02T18:35:56.005Z,98425.37
2023-04-02T18:38:43.113Z,98432.83
2023-04-02T18:41:51.022Z,98433.48
2023-04-02T18:44:38.877Z,98435.04
2023-04-02T18:47:31.377Z,98440.25
2023-04-02T18:50:15.947Z,98436.84
2023-04-02T18:52:43.313Z,98443.98
2023-04-02T18:55:31.730Z,98444.52
2023-04-02T18:58:06.325Z,98442.87
2023-04-02T19:00:38.466Z,98447.71
2023-04-02T19:03:21.618Z,98445.05
2023-04-02T19:06:01.227Z,98447.23
2023-04-02T19:08:43.941Z,98446.75
2023-04-02T19:11:28.780Z,98449.25
2023-04-02T19:14:00.399Z,98448.98
2023-04-02T19:16:55.152Z,98448.30
2023-04-02T19:19:25.710Z,98450.96
2023-04-02T19:22:24.772Z,98453.34
2023-04-02T19:25:05.593Z,98455.21
2023-04-02T19:27:55.921Z,98457.39
2023-04-02T19:30:45.736Z,98458.84
2023-04-02T19:33:26.236Z,98460.13
2023-04-02T19:35:57.071Z,98465.94
2023-04-02T19:38:46.611Z,98464.36
2023-04-02T19:41:48.714Z,98466.05
2023-04-02T19:44:17.235Z,98469.98
2023-04-02T19:46:45.633Z,98473.80
2023-04-02T19:49:29.551Z,98471.61
2023-04-02T19:51:57.129Z,98470.95
2023-04-02T19:54:24.107Z,98475.23
2023-04-02T19:56:51.287Z,98476.44
2023-04-02T19:59:19.022Z,98477.95
2023-04-02T20:01:47.066Z,98480.27
2023-04-02T20:04:14.593Z,98479.95
2023-04-02T20:06:41.993Z,98481.21
2023-04-02T20:09:09.804Z,98477.48
2023-04-02T20:11:38.275Z,98478.71
2023-04-02T20:14:06.237Z,98479.52
2023-04-02T20:16:34.618Z,98480.80
2023-04-02T20:19:01.896Z,98480.65
2023-04-02T20:21:29.663Z,98481.23
2023-04-02T20:23:56.642Z,98478.66
2023-04-02T20:26:23.598Z,98482.16
2023-04-02T20:28:50.607Z,98485.89
2023-04-02T20:31:18.911Z,98488.48
2023-04-02T20:33:46.362Z,98489.88
2023-04-02T20:36:17.822Z,98492.60
2023-04-02T20:38:45.983Z,98494.84
2023-04-02T20:41:13.217Z,98498.14
2023-04-02T20:43:41.062Z,98501.66
2023-04-02T20:46:10.832Z,98505.66
2023-04-02T20:48:39.435Z,98507.16
2023-04-02T20:51:08.992Z,98509.68
2023-04-02T20:53:38.036Z,98511.93
2023-04-02T20:56:14.094Z,98516.77
2023-04-02T20:58:41.870Z,98515.80
2023-04-02T21:01:20.865Z,98517.43
2023-04-02T21:03:48.368Z,98517.77
2023-04-02T21:06:21.513Z,98520.48
2023-04-02T21:08:49.482Z,98515.17
2023-04-02T21:11:17.090Z,98518.04
2023-04-02T21:13:44.445Z,98522.06
2023-04-02T21:16:23.119Z,98523.98
2023-04-02T21:18:52.894Z,98524.45
2023-04-02T21:21:21.600Z,98521.61
2023-04-02T21:23:53.312Z,98528.15
2023-04-02T21:26:20.772Z,98526.42
2023-04-02T21:28:47.490Z,98528.02
2023-04-02T21:31:17.900Z,98525.11
2023-04-02T21:33:47.922Z,98528.42
2023-04-02T21:36:16.169Z,98527.73
2023-04-02T21:38:54.033Z,98529.17
2023-04-02T21:41:26.684Z,98528.06
2023-04-02T21:43:54.808Z,98528.33
2023-04-02T21:46:24.355Z,98526.55
2023-04-02T21:48:52.745Z,98530.10
2023-04-02T21:51:23.008Z,98534.22
2023-04-02T21:53:50.789Z,98537.27
2023-04-02T21:56:23.656Z,98538.05
2023-04-02T21:58:51.409Z,98540.13
2023-04-02T22:01:27.314Z,98541.37
2023-04-02T22:03:59.281Z,98544.62
2023-04-02T22:06:28.862Z,98549.49
2023-04-02T22:09:01.447Z,98551.08
2023-04-02T22:11:31.752Z,98549.50
2023-04-02T22:13:59.808Z,98544.67
2023-04-02T22:16:29.046Z,98551.21
2023-04-02T22:18:58.930Z,98547.08
2023-04-02T22:21:26.555Z,98548.98
2023-04-02T22:23:53.655Z,98551.84
2023-04-02T22:26:23.248Z,98553.12
2023-04-02T22:28:52.903Z,98557.36
2023-04-02T22:31:23.087Z,98555.56
2023-04-02T22:33:51.071Z,98557.90
2023-04-02T22:36:19.049Z,98560.13
2023-04-02T22:38:46.339Z,98562.52
2023-04-02T22:41:15.708Z,98562.36
2023-04-02T22:43:45.897Z,98564.27
2023-04-02T22:46:15.961Z,98562.24
2023-04-02T22:48:44.314Z,98563.48
2023-04-02T22:51:12.968Z,98560.55
2023-04-02T22:53:40.924Z,98566.02
2023-04-02T22:56:10.500Z,98562.41
2023-04-02T22:58:38.381Z,98562.84
2023-04-02T23:01:16.912Z,98565.27
2023-04-02T23:03:44.110Z,98564.59
2023-04-02T23:06:15.654Z,98569.40
2023-04-02T23:08:43.121Z,98569.35
2023-04-02T23:11:12.046Z,98570.14
2023-04-02T23:13:39.727Z,98571.05
2023-04-02T23:16:11.024Z,98569.25
2023-04-02T23:18:40.516Z,98569.51
2023-04-02T23:21:08.117Z,98571.67
2023-04-02T23:23:36.022Z,98573.33
2023-04-02T23:26:08.640Z,98576.02
2023-04-02T23:28:36.997Z,98573.91
2023-04-02T23:31:05.440Z,98576.62
2023-04-02T23:33:32.397Z,98579.86
2023-04-02T23:35:59.659Z,98578.36
2023-04-02T23:38:27.491Z,98578.95
2023-04-02T23:40:54.196Z,98579.16
2023-04-02T23:43:21.265Z,98576.61
2023-04-02T23:45:51.283Z,98580.31
2023-04-02T23:48:18.064Z,98582.08
2023-04-02T23:50:45.905Z,98582.60
2023-04-02T23:53:13.468Z,98580.36
2023-04-02T23:55:40.638Z,98584.77
2023-04-02T23:58:07.563Z,98588.31
